createdAt,value
2019-01-29T00:02:26.264Z,56258.86
2019-01-29T00:04:56.156Z,56273.25
2019-01-29T00:07:26.133Z,56234.18
2019-01-29T00:09:56.692Z,56248.57
2019-01-29T00:12:26.606Z,56281.48
2019-01-29T00:14:56.696Z,56250.63
2019-01-29T00:17:26.638Z,56258.86
2019-01-29T00:19:56.514Z,56269.14
2019-01-29T00:22:33.214Z,56236.23
2019-01-29T00:24:57.987Z,56223.89
2019-01-29T00:27:27.851Z,56244.46
2019-01-29T00:29:57.719Z,56219.78
2019-01-29T00:32:27.860Z,56254.74
2019-01-29T00:34:57.737Z,56245.49
2019-01-29T00:37:27.691Z,56259.88
2019-01-29T00:39:57.844Z,56267.08
2019-01-29T00:42:27.676Z,56236.23
2019-01-29T00:44:57.572Z,56272.22
2019-01-29T00:47:27.411Z,56218.75
2019-01-29T00:49:57.515Z,56252.69
2019-01-29T00:52:27.455Z,56259.88
2019-01-29T00:54:57.340Z,56270.17
2019-01-29T00:57:27.533Z,56295.88
2019-01-29T00:59:57.657Z,56262.97
2019-01-29T01:02:27.606Z,56255.77
2019-01-29T01:04:57.466Z,56283.54
2019-01-29T01:07:27.401Z,56242.40
2019-01-29T01:09:57.575Z,56236.23
2019-01-29T01:12:27.741Z,56277.36
2019-01-29T01:14:57.583Z,56269.14
2019-01-29T01:17:27.422Z,56257.83
2019-01-29T01:19:57.308Z,56252.69
2019-01-29T01:22:27.216Z,56258.86
2019-01-29T01:24:57.040Z,56281.48
2019-01-29T01:27:26.878Z,56232.12
2019-01-29T01:29:56.791Z,56257.83
2019-01-29T01:32:26.657Z,56265.03
2019-01-29T01:34:56.755Z,56251.66
2019-01-29T01:37:26.647Z,56266.05
2019-01-29T01:39:56.530Z,56238.29
2019-01-29T01:42:26.711Z,56242.40
2019-01-29T01:44:56.779Z,56234.18
2019-01-29T01:47:26.627Z,56236.23
2019-01-29T01:49:56.509Z,56233.15
2019-01-29T01:52:26.401Z,56261.94
2019-01-29T01:54:56.550Z,56254.74
2019-01-29T01:57:26.474Z,56241.37
2019-01-29T01:59:56.384Z,56259.88
2019-01-29T02:02:26.227Z,56269.14
2019-01-29T02:04:56.102Z,56253.71
2019-01-29T02:07:25.987Z,56226.98
2019-01-29T02:09:55.831Z,56204.36
2019-01-29T02:12:25.701Z,56248.57
2019-01-29T02:14:55.643Z,56236.23
2019-01-29T02:17:25.812Z,56244.46
2019-01-29T02:19:55.681Z,56255.77
2019-01-29T02:22:25.559Z,56272.22
2019-01-29T02:24:55.417Z,56259.88
2019-01-29T02:27:25.236Z,56264.00
2019-01-29T02:29:55.098Z,56251.66
2019-01-29T02:32:24.942Z,56242.40
2019-01-29T02:34:54.826Z,56229.04
2019-01-29T02:37:24.689Z,56226.98
2019-01-29T02:39:54.761Z,56218.75
2019-01-29T02:42:24.614Z,56236.23
2019-01-29T02:44:54.533Z,56240.34
2019-01-29T02:47:24.407Z,56268.11
2019-01-29T02:49:54.286Z,56228.01
2019-01-29T02:52:24.354Z,56247.54
2019-01-29T02:54:54.230Z,56230.06
2019-01-29T02:57:24.207Z,56254.74
2019-01-29T02:59:54.376Z,56247.54
2019-01-29T03:02:24.247Z,56244.46
2019-01-29T03:04:54.119Z,56261.94
2019-01-29T03:07:24.145Z,56254.74
2019-01-29T03:09:53.987Z,56221.84
2019-01-29T03:12:23.810Z,56246.52
2019-01-29T03:14:53.739Z,56260.91
2019-01-29T03:17:23.618Z,56248.57
2019-01-29T03:19:53.691Z,56240.34
2019-01-29T03:22:23.527Z,56260.91
2019-01-29T03:24:53.361Z,56271.20
2019-01-29T03:27:23.452Z,56254.74
2019-01-29T03:29:53.316Z,56267.08
2019-01-29T03:32:23.197Z,56277.36
2019-01-29T03:34:53.074Z,56244.46
2019-01-29T03:37:23.157Z,56267.08
2019-01-29T03:39:52.980Z,56267.08
2019-01-29T03:42:23.092Z,56206.41
2019-01-29T03:44:53.265Z,56228.01
2019-01-29T03:47:23.137Z,56215.67
2019-01-29T03:49:53.018Z,56273.25
2019-01-29T03:52:22.885Z,56237.26
2019-01-29T03:54:53.484Z,56225.95
2019-01-29T03:57:23.349Z,56246.52
2019-01-29T03:59:53.251Z,56265.03
2019-01-29T04:02:23.330Z,56233.15
2019-01-29T04:04:53.459Z,56244.46
2019-01-29T04:07:23.548Z,56265.03
2019-01-29T04:09:53.421Z,56250.63
2019-01-29T04:12:23.299Z,56236.23
2019-01-29T04:14:53.459Z,56247.54
2019-01-29T04:17:23.554Z,56215.67
2019-01-29T04:19:53.403Z,56269.14
2019-01-29T04:22:23.252Z,56265.03
2019-01-29T04:24:53.352Z,56217.72
2019-01-29T04:27:23.260Z,56252.69
2019-01-29T04:29:53.093Z,56248.57
2019-01-29T04:32:23.180Z,56244.46
2019-01-29T04:34:53.281Z,56276.34
2019-01-29T04:37:23.139Z,56279.42
2019-01-29T04:39:53.202Z,56277.36
2019-01-29T04:42:23.319Z,56250.63
2019-01-29T04:44:53.309Z,56236.23
2019-01-29T04:47:23.175Z,56251.66
2019-01-29T04:49:53.700Z,56271.20
2019-01-29T04:52:23.746Z,56246.52
2019-01-29T04:54:53.625Z,56262.97
2019-01-29T04:57:23.478Z,56252.69
2019-01-29T04:59:53.789Z,56225.95
2019-01-29T05:02:23.677Z,56224.92
2019-01-29T05:04:53.874Z,56233.15
2019-01-29T05:07:23.713Z,56287.65
2019-01-29T05:09:54.233Z,56254.74
2019-01-29T05:12:24.055Z,56256.80
2019-01-29T05:14:53.929Z,56245.49
2019-01-29T05:17:23.734Z,56214.64
2019-01-29T05:19:53.840Z,56220.81
2019-01-29T05:22:23.665Z,56236.23
2019-01-29T05:24:53.531Z,56249.60
2019-01-29T05:27:23.361Z,56264.00
2019-01-29T05:29:53.255Z,56236.23
2019-01-29T05:32:23.401Z,56256.80
2019-01-29T05:34:53.261Z,56255.77
2019-01-29T05:37:23.339Z,56235.20
2019-01-29T05:39:53.432Z,56239.32
2019-01-29T05:42:23.463Z,56219.78
2019-01-29T05:44:53.545Z,56216.70
2019-01-29T05:47:23.421Z,56250.63
2019-01-29T05:49:53.494Z,56211.55
2019-01-29T05:52:23.613Z,56253.71
2019-01-29T05:54:53.555Z,56246.52
2019-01-29T05:57:23.617Z,56243.43
2019-01-29T05:59:53.632Z,56244.46
2019-01-29T06:02:23.720Z,56249.60
2019-01-29T06:04:53.620Z,56254.74
2019-01-29T06:07:23.485Z,56226.98
2019-01-29T06:09:53.343Z,56239.32
2019-01-29T06:12:23.373Z,56243.43
2019-01-29T06:14:53.237Z,56205.38
2019-01-29T06:17:27.472Z,56237.26
2019-01-29T06:19:55.344Z,56188.93
2019-01-29T06:22:25.216Z,56257.83
2019-01-29T06:24:55.041Z,56237.26
2019-01-29T06:27:24.960Z,56220.81
2019-01-29T06:29:54.825Z,56203.33
2019-01-29T06:32:24.895Z,56249.60
2019-01-29T06:34:54.706Z,56212.58
2019-01-29T06:37:24.595Z,56199.21
2019-01-29T06:39:54.495Z,56226.98
2019-01-29T06:42:24.441Z,56240.34
2019-01-29T06:44:54.337Z,56217.72
2019-01-29T06:47:24.172Z,56225.95
2019-01-29T06:49:54.119Z,56258.86
2019-01-29T06:52:23.968Z,56217.72
2019-01-29T06:54:53.833Z,56222.87
2019-01-29T06:57:23.726Z,56269.14
2019-01-29T06:59:53.597Z,56214.64
2019-01-29T07:02:23.447Z,56224.92
2019-01-29T07:04:53.276Z,56228.01
2019-01-29T07:07:23.242Z,56265.03
2019-01-29T07:09:53.137Z,56254.74
2019-01-29T07:12:23.239Z,56223.89
2019-01-29T07:14:53.092Z,56218.75
2019-01-29T07:17:44.749Z,56220.81
2019-01-29T07:20:14.921Z,56276.34
2019-01-29T07:22:44.825Z,56200.24
2019-01-29T07:25:14.824Z,56225.95
2019-01-29T07:27:44.755Z,56251.66
2019-01-29T07:30:15.784Z,56244.46
2019-01-29T07:32:46.123Z,56206.41
2019-01-29T07:35:15.999Z,56238.29
2019-01-29T07:37:45.894Z,56226.98
2019-01-29T07:40:15.952Z,56203.33
2019-01-29T07:42:45.892Z,56230.06
2019-01-29T07:45:16.054Z,56228.01
2019-01-29T07:47:46.666Z,56236.23
2019-01-29T07:50:16.885Z,56235.20
2019-01-29T07:52:46.812Z,56204.36
2019-01-29T07:55:16.645Z,56192.02
2019-01-29T07:57:46.490Z,56242.40
2019-01-29T08:00:16.830Z,56243.43
2019-01-29T08:02:46.956Z,56196.13
2019-01-29T08:05:16.801Z,56199.21
2019-01-29T08:07:46.687Z,56248.57
2019-01-29T08:10:17.081Z,56217.72
2019-01-29T08:12:46.958Z,56195.10
2019-01-29T08:15:17.099Z,56254.74
2019-01-29T08:17:47.059Z,56244.46
2019-01-29T08:20:17.607Z,56221.84
2019-01-29T08:22:47.530Z,56215.67
2019-01-29T08:25:17.497Z,56232.12
2019-01-29T08:27:47.363Z,56269.14
2019-01-29T08:30:17.341Z,56230.06
2019-01-29T08:32:47.404Z,56179.68
2019-01-29T08:35:17.387Z,56207.44
2019-01-29T08:37:47.264Z,56230.06
2019-01-29T08:40:17.361Z,56246.52
2019-01-29T08:42:47.340Z,56211.55
2019-01-29T08:45:17.707Z,56176.59
2019-01-29T08:47:47.779Z,56207.44
2019-01-29T08:50:21.049Z,56234.18
2019-01-29T08:52:51.106Z,56210.52
2019-01-29T08:55:22.195Z,56210.52
2019-01-29T08:57:52.275Z,56218.75
2019-01-29T09:00:22.141Z,56185.85
2019-01-29T09:02:52.407Z,56238.29
2019-01-29T09:05:22.500Z,56213.61
2019-01-29T09:07:52.439Z,56187.90
2019-01-29T09:10:22.633Z,56163.23
2019-01-29T09:12:52.699Z,56242.40
2019-01-29T09:15:23.103Z,56219.78
2019-01-29T09:17:53.204Z,56198.19
2019-01-29T09:20:23.498Z,56168.37
2019-01-29T09:22:53.528Z,56173.51
2019-01-29T09:25:23.567Z,56188.93
2019-01-29T09:27:53.378Z,56188.93
2019-01-29T09:30:23.543Z,56180.71
2019-01-29T09:32:53.519Z,56199.21
2019-01-29T09:35:23.439Z,56201.27
2019-01-29T09:37:53.302Z,56207.44
2019-01-29T09:40:23.258Z,56203.33
2019-01-29T09:42:53.365Z,56188.93
2019-01-29T09:45:23.479Z,56162.20
2019-01-29T09:47:53.381Z,56184.82
2019-01-29T09:50:24.186Z,56177.62
2019-01-29T09:52:55.071Z,56194.07
2019-01-29T09:55:29.319Z,56209.50
2019-01-29T09:57:57.480Z,56202.30
2019-01-29T10:00:30.583Z,56223.89
2019-01-29T10:03:00.543Z,56195.10
2019-01-29T10:05:30.822Z,56258.86
2019-01-29T10:08:00.988Z,56232.12
2019-01-29T10:10:30.870Z,56219.78
2019-01-29T10:13:00.765Z,56197.16
2019-01-29T10:15:33.281Z,56177.62
2019-01-29T10:18:03.520Z,56178.65
2019-01-29T10:20:33.657Z,56196.13
2019-01-29T10:23:03.767Z,56190.99
2019-01-29T10:25:37.953Z,56200.24
2019-01-29T10:28:05.466Z,56198.19
2019-01-29T10:30:35.613Z,56183.79
2019-01-29T10:33:05.601Z,56216.70
2019-01-29T10:35:35.555Z,56221.84
2019-01-29T10:38:05.536Z,56206.41
2019-01-29T10:40:35.433Z,56216.70
2019-01-29T10:43:05.665Z,56213.61
2019-01-29T10:45:35.626Z,56199.21
2019-01-29T10:48:05.816Z,56216.70
2019-01-29T10:50:35.840Z,56207.44
2019-01-29T10:53:06.150Z,56202.30
2019-01-29T10:55:36.080Z,56205.38
2019-01-29T10:58:07.122Z,56213.61
2019-01-29T11:00:40.261Z,56188.93
2019-01-29T11:03:11.753Z,56233.15
2019-01-29T11:05:41.761Z,56185.85
2019-01-29T11:08:11.636Z,56225.95
2019-01-29T11:10:41.703Z,56240.34
2019-01-29T11:13:12.665Z,56173.51
2019-01-29T11:15:43.355Z,56199.21
2019-01-29T11:18:15.745Z,56170.42
2019-01-29T11:20:45.727Z,56198.19
2019-01-29T11:23:15.560Z,56240.34
2019-01-29T11:25:45.480Z,56184.82
2019-01-29T11:28:15.641Z,56212.58
2019-01-29T11:30:45.977Z,56202.30
2019-01-29T11:33:16.135Z,56221.84
2019-01-29T11:35:46.044Z,56223.89
2019-01-29T11:38:16.274Z,56183.79
2019-01-29T11:40:46.519Z,56206.41
2019-01-29T11:43:16.382Z,56174.54
2019-01-29T11:45:53.120Z,56188.93
2019-01-29T11:48:23.200Z,56151.91
2019-01-29T11:50:53.037Z,56202.30
2019-01-29T11:53:23.197Z,56161.17
2019-01-29T11:55:53.277Z,56229.04
2019-01-29T11:58:23.131Z,56218.75
2019-01-29T12:00:56.646Z,56205.38
2019-01-29T12:03:26.558Z,56170.42
2019-01-29T12:05:56.504Z,56174.54
2019-01-29T12:08:26.688Z,56212.58
2019-01-29T12:10:56.817Z,56186.87
2019-01-29T12:13:26.937Z,56178.65
2019-01-29T12:15:56.841Z,56202.30
2019-01-29T12:18:28.094Z,56170.42
2019-01-29T12:20:58.425Z,56217.72
2019-01-29T12:23:28.302Z,56163.23
2019-01-29T12:25:58.261Z,56212.58
2019-01-29T12:28:28.562Z,56200.24
2019-01-29T12:30:58.501Z,56194.07
2019-01-29T12:33:28.350Z,56217.72
2019-01-29T12:35:58.243Z,56193.05
2019-01-29T12:38:28.587Z,56178.65
2019-01-29T12:40:58.578Z,56180.71
2019-01-29T12:43:28.475Z,56196.13
2019-01-29T12:45:58.299Z,56200.24
2019-01-29T12:48:28.151Z,56199.21
2019-01-29T12:50:59.369Z,56193.05
2019-01-29T12:53:37.748Z,56174.54
2019-01-29T12:56:08.351Z,56187.90
2019-01-29T12:58:39.753Z,56178.65
2019-01-29T13:01:09.710Z,56188.93
2019-01-29T13:03:39.698Z,56162.20
2019-01-29T13:06:10.202Z,56192.02
2019-01-29T13:08:40.139Z,56179.68
2019-01-29T13:11:10.058Z,56186.87
2019-01-29T13:13:40.011Z,56179.68
2019-01-29T13:16:09.944Z,56167.34
2019-01-29T13:18:40.035Z,56199.21
2019-01-29T13:21:10.522Z,56174.54
2019-01-29T13:23:40.617Z,56168.37
2019-01-29T13:26:10.448Z,56176.59
2019-01-29T13:28:40.321Z,56148.83
2019-01-29T13:31:10.471Z,56192.02
2019-01-29T13:33:40.583Z,56194.07
2019-01-29T13:36:10.558Z,56185.85
2019-01-29T13:38:40.668Z,56194.07
2019-01-29T13:41:10.610Z,56166.31
2019-01-29T13:43:40.736Z,56201.27
2019-01-29T13:46:10.766Z,56178.65
2019-01-29T13:48:40.846Z,56202.30
2019-01-29T13:51:11.073Z,56203.33
2019-01-29T13:53:41.008Z,56198.19
2019-01-29T13:56:10.925Z,56214.64
2019-01-29T13:58:40.790Z,56182.76
2019-01-29T14:01:10.939Z,56180.71
2019-01-29T14:03:40.789Z,56232.12
2019-01-29T14:06:10.634Z,56207.44
2019-01-29T14:08:40.472Z,56142.66
2019-01-29T14:11:10.512Z,56176.59
2019-01-29T14:13:40.355Z,56246.52
2019-01-29T14:16:13.224Z,56176.59
2019-01-29T14:18:43.063Z,56195.10
2019-01-29T14:21:13.378Z,56176.59
2019-01-29T14:23:43.851Z,56182.76
2019-01-29T14:26:13.731Z,56210.52
2019-01-29T14:28:43.644Z,56207.44
2019-01-29T14:31:13.809Z,56168.37
2019-01-29T14:33:43.633Z,56168.37
2019-01-29T14:36:16.869Z,56186.87
2019-01-29T14:39:25.452Z,56173.51
2019-01-29T14:41:55.570Z,56178.65
2019-01-29T14:44:43.030Z,56192.02
2019-01-29T14:47:12.897Z,56177.62
2019-01-29T14:49:42.874Z,56197.16
2019-01-29T14:52:12.744Z,56215.67
2019-01-29T14:54:42.706Z,56188.93
2019-01-29T14:57:12.595Z,56165.28
2019-01-29T14:59:42.674Z,56207.44
2019-01-29T15:02:12.543Z,56194.07
2019-01-29T15:04:42.522Z,56190.99
2019-01-29T15:07:12.670Z,56179.68
2019-01-29T15:09:42.992Z,56210.52
2019-01-29T15:12:12.858Z,56195.10
2019-01-29T15:14:42.682Z,56216.70
2019-01-29T15:17:43.733Z,56197.16
2019-01-29T15:20:13.777Z,56211.55
2019-01-29T15:22:43.798Z,56220.81
2019-01-29T15:25:13.858Z,56182.76
2019-01-29T15:27:43.862Z,56203.33
2019-01-29T15:30:23.792Z,56204.36
2019-01-29T15:32:53.601Z,56218.75
2019-01-29T15:35:23.526Z,56220.81
2019-01-29T15:37:54.679Z,56181.73
2019-01-29T15:40:24.856Z,56176.59
2019-01-29T15:42:56.104Z,56214.64
2019-01-29T15:45:26.376Z,56219.78
2019-01-29T15:47:56.229Z,56203.33
2019-01-29T15:50:26.416Z,56181.73
2019-01-29T15:52:56.651Z,56181.73
2019-01-29T15:55:26.596Z,56210.52
2019-01-29T15:57:56.466Z,56200.24
2019-01-29T16:00:30.039Z,56208.47
2019-01-29T16:02:59.975Z,56241.37
2019-01-29T16:05:29.987Z,56174.54
2019-01-29T16:07:59.898Z,56190.99
2019-01-29T16:10:39.552Z,56188.93
2019-01-29T16:13:03.823Z,56195.10
2019-01-29T16:15:34.070Z,56222.87
2019-01-29T16:18:04.115Z,56223.89
2019-01-29T16:20:34.299Z,56193.05
2019-01-29T16:23:04.288Z,56196.13
2019-01-29T16:25:34.551Z,56217.72
2019-01-29T16:28:04.359Z,56194.07
2019-01-29T16:30:34.372Z,56202.30
2019-01-29T16:33:04.566Z,56212.58
2019-01-29T16:35:34.608Z,56197.16
2019-01-29T16:38:05.615Z,56182.76
2019-01-29T16:40:36.111Z,56184.82
2019-01-29T16:43:06.622Z,56195.10
2019-01-29T16:45:37.023Z,56194.07
2019-01-29T16:48:07.803Z,56202.30
2019-01-29T16:50:37.636Z,56203.33
2019-01-29T16:53:07.940Z,56165.28
2019-01-29T16:55:38.476Z,56208.47
2019-01-29T16:58:09.223Z,56195.10
2019-01-29T17:00:39.724Z,56181.73
2019-01-29T17:03:09.937Z,56228.01
2019-01-29T17:05:39.825Z,56184.82
2019-01-29T17:08:09.659Z,56217.72
2019-01-29T17:10:39.514Z,56266.05
2019-01-29T17:13:09.363Z,56206.41
2019-01-29T17:15:39.371Z,56231.09
2019-01-29T17:18:09.488Z,56203.33
2019-01-29T17:20:41.194Z,56218.75
2019-01-29T17:23:11.382Z,56225.95
2019-01-29T17:25:41.381Z,56201.27
2019-01-29T17:28:11.313Z,56162.20
2019-01-29T17:30:43.645Z,56221.84
2019-01-29T17:33:16.113Z,56215.67
2019-01-29T17:35:46.151Z,56221.84
2019-01-29T17:38:16.140Z,56204.36
2019-01-29T17:40:47.079Z,56193.05
2019-01-29T17:43:17.026Z,56235.20
2019-01-29T17:45:48.780Z,56189.96
2019-01-29T17:48:18.756Z,56233.15
2019-01-29T17:50:48.821Z,56178.65
2019-01-29T17:53:18.701Z,56241.37
2019-01-29T17:55:48.625Z,56204.36
2019-01-29T17:58:18.823Z,56211.55
2019-01-29T18:00:53.119Z,56233.15
2019-01-29T18:03:23.070Z,56229.04
2019-01-29T18:05:53.027Z,56232.12
2019-01-29T18:08:23.155Z,56212.58
2019-01-29T18:10:53.329Z,56166.31
2019-01-29T18:13:23.279Z,56209.50
2019-01-29T18:15:53.397Z,56217.72
2019-01-29T18:18:23.353Z,56189.96
2019-01-29T18:20:53.197Z,56205.38
2019-01-29T18:23:23.042Z,56231.09
2019-01-29T18:25:52.988Z,56205.38
2019-01-29T18:28:23.347Z,56223.89
2019-01-29T18:30:53.297Z,56238.29
2019-01-29T18:33:23.461Z,56217.72
2019-01-29T18:35:53.375Z,56213.61
2019-01-29T18:38:23.606Z,56210.52
2019-01-29T18:40:59.068Z,56230.06
2019-01-29T18:43:32.112Z,56239.32
2019-01-29T18:46:04.810Z,56258.86
2019-01-29T18:48:37.665Z,56218.75
2019-01-29T18:51:08.426Z,56197.16
2019-01-29T18:53:38.572Z,56193.05
2019-01-29T18:56:08.738Z,56235.20
2019-01-29T18:58:39.551Z,56242.40
2019-01-29T19:01:09.923Z,56230.06
2019-01-29T19:03:40.080Z,56246.52
2019-01-29T19:06:10.020Z,56198.19
2019-01-29T19:08:40.297Z,56258.86
2019-01-29T19:11:10.268Z,56202.30
2019-01-29T19:13:40.141Z,56233.15
2019-01-29T19:16:10.135Z,56207.44
2019-01-29T19:18:40.267Z,56231.09
2019-01-29T19:21:10.135Z,56241.37
2019-01-29T19:23:40.039Z,56221.84
2019-01-29T19:26:10.029Z,56235.20
2019-01-29T19:28:39.845Z,56214.64
2019-01-29T19:31:09.715Z,56238.29
2019-01-29T19:33:39.603Z,56225.95
2019-01-29T19:36:09.765Z,56245.49
2019-01-29T19:38:39.658Z,56226.98
2019-01-29T19:41:09.548Z,56216.70
2019-01-29T19:43:39.463Z,56276.34
2019-01-29T19:46:09.343Z,56242.40
2019-01-29T19:48:39.318Z,56220.81
2019-01-29T19:51:09.433Z,56213.61
2019-01-29T19:53:39.293Z,56221.84
2019-01-29T19:56:09.249Z,56220.81
2019-01-29T19:58:39.247Z,56245.49
2019-01-29T20:01:09.161Z,56210.52
2019-01-29T20:03:39.103Z,56269.14
2019-01-29T20:06:08.940Z,56253.71
2019-01-29T20:08:38.824Z,56275.31
2019-01-29T20:11:08.873Z,56217.72
2019-01-29T20:13:39.313Z,56208.47
2019-01-29T20:16:09.461Z,56243.43
2019-01-29T20:18:39.611Z,56245.49
2019-01-29T20:21:09.464Z,56204.36
2019-01-29T20:23:41.308Z,56259.88
2019-01-29T20:26:11.209Z,56247.54
2019-01-29T20:28:42.535Z,56247.54
2019-01-29T20:31:14.970Z,56252.69
2019-01-29T20:33:44.645Z,56241.37
2019-01-29T20:36:14.507Z,56236.23
2019-01-29T20:38:44.388Z,56234.18
2019-01-29T20:41:14.235Z,56243.43
2019-01-29T20:43:44.067Z,56208.47
2019-01-29T20:46:13.963Z,56237.26
2019-01-29T20:48:44.102Z,56232.12
2019-01-29T20:51:14.025Z,56247.54
2019-01-29T20:53:43.930Z,56262.97
2019-01-29T20:56:13.775Z,56246.52
2019-01-29T20:58:52.595Z,56201.27
2019-01-29T21:01:15.229Z,56256.80
2019-01-29T21:03:45.115Z,56233.15
2019-01-29T21:06:14.951Z,56266.05
2019-01-29T21:08:45.043Z,56212.58
2019-01-29T21:11:14.888Z,56246.52
2019-01-29T21:13:45.011Z,56262.97
2019-01-29T21:16:14.960Z,56246.52
2019-01-29T21:19:04.328Z,56256.80
2019-01-29T21:21:34.280Z,56251.66
2019-01-29T21:24:04.275Z,56251.66
2019-01-29T21:26:34.358Z,56248.57
2019-01-29T21:29:04.309Z,56245.49
2019-01-29T21:31:34.366Z,56275.31
2019-01-29T21:34:06.233Z,56266.05
2019-01-29T21:36:36.744Z,56276.34
2019-01-29T21:39:12.356Z,56262.97
2019-01-29T21:41:42.911Z,56265.03
2019-01-29T21:44:13.024Z,56272.22
2019-01-29T21:46:43.436Z,56236.23
2019-01-29T21:49:14.079Z,56248.57
2019-01-29T21:51:44.039Z,56245.49
2019-01-29T21:54:17.425Z,56253.71
2019-01-29T21:56:49.753Z,56253.71
2019-01-29T21:59:18.992Z,56225.95
2019-01-29T22:01:49.117Z,56244.46
2019-01-29T22:04:19.313Z,56241.37
2019-01-29T22:06:49.152Z,56246.52
2019-01-29T22:09:19.265Z,56229.04
2019-01-29T22:11:49.143Z,56248.57
2019-01-29T22:14:19.329Z,56240.34
2019-01-29T22:16:49.202Z,56277.36
2019-01-29T22:19:19.134Z,56284.56
2019-01-29T22:21:49.033Z,56238.29
2019-01-29T22:24:18.945Z,56264.00
2019-01-29T22:26:48.840Z,56210.52
2019-01-29T22:29:23.325Z,56238.29
2019-01-29T22:31:50.579Z,56264.00
2019-01-29T22:34:20.429Z,56236.23
2019-01-29T22:36:50.567Z,56268.11
2019-01-29T22:39:20.598Z,56234.18
2019-01-29T22:41:50.549Z,56251.66
2019-01-29T22:44:20.406Z,56229.04
2019-01-29T22:46:50.298Z,56211.55
2019-01-29T22:49:20.166Z,56226.98
2019-01-29T22:51:50.014Z,56236.23
2019-01-29T22:54:19.898Z,56283.54
2019-01-29T22:56:49.851Z,56235.20
2019-01-29T22:59:19.714Z,56245.49
2019-01-29T23:01:49.633Z,56265.03
2019-01-29T23:04:26.022Z,56276.34
2019-01-29T23:07:13.110Z,56241.37
2019-01-29T23:09:42.974Z,56271.20
2019-01-29T23:12:12.999Z,56266.05
2019-01-29T23:14:43.038Z,56267.08
2019-01-29T23:17:13.002Z,56248.57
2019-01-29T23:19:42.885Z,56267.08
2019-01-29T23:22:12.865Z,56252.69
2019-01-29T23:24:43.031Z,56229.04
2019-01-29T23:27:12.935Z,56250.63
2019-01-29T23:29:43.778Z,56278.39
2019-01-29T23:32:13.802Z,56281.48
2019-01-29T23:34:43.629Z,56241.37
2019-01-29T23:37:13.800Z,56255.77
2019-01-29T23:39:43.654Z,56260.91
2019-01-29T23:42:13.784Z,56282.50
2019-01-29T23:44:43.617Z,56238.29
2019-01-29T23:47:13.770Z,56250.63
2019-01-29T23:49:43.645Z,56247.54
2019-01-29T23:52:13.624Z,56275.31
2019-01-29T23:54:43.741Z,56265.03
2019-01-29T23:57:13.694Z,56228.01
2019-01-29T23:59:53.342Z,56254.74
